createdAt,value
2023-04-27T00:00:37.169Z,97666.25
2023-04-27T00:03:07.005Z,97661.84
2023-04-27T00:05:35.590Z,97664.59
2023-04-27T00:08:04.569Z,97659.16
2023-04-27T00:10:32.092Z,97655.41
2023-04-27T00:12:59.784Z,97661.84
2023-04-27T00:15:27.642Z,97649.69
2023-04-27T00:17:55.223Z,97657.91
2023-04-27T00:20:22.801Z,97656.63
2023-04-27T00:22:50.404Z,97649.16
2023-04-27T00:25:19.350Z,97653.88
2023-04-27T00:27:46.922Z,97653.84
2023-04-27T00:30:14.581Z,97654.84
2023-04-27T00:32:42.651Z,97655.50
2023-04-27T00:35:10.795Z,97652.13
2023-04-27T00:37:38.349Z,97648.19
2023-04-27T00:40:07.899Z,97650.28
2023-04-27T00:42:36.806Z,97655.88
2023-04-27T00:45:06.094Z,97664.41
2023-04-27T00:47:33.991Z,97661.19
2023-04-27T00:50:03.929Z,97660.50
2023-04-27T00:52:31.595Z,97663.38
2023-04-27T00:54:59.128Z,97666.53
2023-04-27T00:57:26.722Z,97668.34
2023-04-27T00:59:55.623Z,97672.19
2023-04-27T01:02:23.377Z,97671.59
2023-04-27T01:04:52.089Z,97667.66
2023-04-27T01:07:20.192Z,97667.50
2023-04-27T01:09:47.701Z,97670.63
2023-04-27T01:12:16.618Z,97673.69
2023-04-27T01:14:44.244Z,97672.66
2023-04-27T01:17:14.209Z,97681.41
2023-04-27T01:19:41.842Z,97678.25
2023-04-27T01:22:10.841Z,97683.56
2023-04-27T01:24:40.422Z,97686.44
2023-04-27T01:27:08.008Z,97685.19
2023-04-27T01:29:37.684Z,97685.56
2023-04-27T01:32:05.811Z,97691.91
2023-04-27T01:34:33.395Z,97679.56
2023-04-27T01:37:01.041Z,97695.47
2023-04-27T01:39:28.577Z,97702.41
2023-04-27T01:41:58.615Z,97698.13
2023-04-27T01:44:26.366Z,97697.13
2023-04-27T01:46:55.146Z,97711.63
2023-04-27T01:49:22.649Z,97700.97
2023-04-27T01:51:50.178Z,97701.81
2023-04-27T01:54:17.705Z,97705.50
2023-04-27T01:56:45.293Z,97704.75
2023-04-27T01:59:14.523Z,97703.06
2023-04-27T02:01:42.378Z,97704.09
2023-04-27T02:04:10.225Z,97707.84
2023-04-27T02:06:37.943Z,97708.22
2023-04-27T02:09:07.224Z,97712.13
2023-04-27T02:11:34.822Z,97715.47
2023-04-27T02:14:02.533Z,97714.78
2023-04-27T02:16:34.461Z,97718.38
2023-04-27T02:19:02.898Z,97719.75
2023-04-27T02:21:30.468Z,97715.31
2023-04-27T02:23:58.014Z,97720.94
2023-04-27T02:26:29.419Z,97715.41
2023-04-27T02:28:58.067Z,97717.19
2023-04-27T02:31:26.323Z,97718.38
2023-04-27T02:33:55.833Z,97721.66
2023-04-27T02:36:26.026Z,97732.72
2023-04-27T02:38:55.660Z,97726.88
2023-04-27T02:41:23.265Z,97723.59
2023-04-27T02:43:51.372Z,97732.41
2023-04-27T02:46:19.090Z,97736.53
2023-04-27T02:48:46.640Z,97728.31
2023-04-27T02:51:15.582Z,97725.72
2023-04-27T02:53:43.177Z,97720.63
2023-04-27T02:56:10.730Z,97726.63
2023-04-27T02:58:38.275Z,97731.47
2023-04-27T03:01:05.931Z,97746.94
2023-04-27T03:03:33.589Z,97733.25
2023-04-27T03:06:01.260Z,97735.00
2023-04-27T03:08:30.133Z,97739.84
2023-04-27T03:10:58.876Z,97739.84
2023-04-27T03:13:26.404Z,97741.28
2023-04-27T03:15:54.316Z,97737.97
2023-04-27T03:18:21.888Z,97734.78
2023-04-27T03:20:49.463Z,97738.66
2023-04-27T03:23:16.954Z,97743.63
2023-04-27T03:25:48.922Z,97747.97
2023-04-27T03:28:16.597Z,97758.25
2023-04-27T03:30:44.154Z,97757.06
2023-04-27T03:33:11.733Z,97764.88
2023-04-27T03:35:39.329Z,97774.09
2023-04-27T03:38:06.925Z,97779.13
2023-04-27T03:40:34.526Z,97775.72
2023-04-27T03:43:03.431Z,97787.53
2023-04-27T03:45:31.233Z,97788.47
2023-04-27T03:47:58.918Z,97791.66
2023-04-27T03:50:28.373Z,97794.38
2023-04-27T03:52:57.267Z,97795.91
2023-04-27T03:55:25.887Z,97800.28
2023-04-27T03:57:53.915Z,97807.59
2023-04-27T04:00:23.661Z,97810.16
2023-04-27T04:02:52.340Z,97808.25
2023-04-27T04:05:20.222Z,97813.47
2023-04-27T04:07:49.454Z,97822.75
2023-04-27T04:10:17.228Z,97821.09
2023-04-27T04:12:45.791Z,97813.72
2023-04-27T04:15:13.506Z,97818.91
2023-04-27T04:17:42.520Z,97820.34
2023-04-27T04:20:10.875Z,97825.19
2023-04-27T04:22:38.620Z,97828.22
2023-04-27T04:25:07.400Z,97820.31
2023-04-27T04:27:34.981Z,97826.00
2023-04-27T04:30:06.413Z,97831.16
2023-04-27T04:32:37.937Z,97826.00
2023-04-27T04:35:29.140Z,97829.88
2023-04-27T04:38:00.830Z,97841.41
2023-04-27T04:40:29.869Z,97831.28
2023-04-27T04:42:57.461Z,97825.53
2023-04-27T04:45:25.247Z,97825.72
2023-04-27T04:47:54.484Z,97838.72
2023-04-27T04:50:23.921Z,97838.88
2023-04-27T04:52:52.161Z,97837.16
2023-04-27T04:55:19.842Z,97827.84
2023-04-27T04:57:47.441Z,97832.31
2023-04-27T05:00:15.491Z,97837.03
2023-04-27T05:02:43.270Z,97825.75
2023-04-27T05:05:10.923Z,97831.94
2023-04-27T05:07:39.811Z,97822.63
2023-04-27T05:10:07.691Z,97828.91
2023-04-27T05:12:35.336Z,97833.50
2023-04-27T05:15:02.876Z,97829.69
2023-04-27T05:17:30.601Z,97825.19
2023-04-27T05:19:58.337Z,97824.44
2023-04-27T05:22:25.967Z,97812.91
2023-04-27T05:24:55.522Z,97818.91
2023-04-27T05:27:23.071Z,97811.34
2023-04-27T05:29:50.750Z,97815.97
2023-04-27T05:32:18.256Z,97812.91
2023-04-27T05:34:47.971Z,97813.66
2023-04-27T05:37:17.076Z,97815.44
2023-04-27T05:39:44.692Z,97812.75
2023-04-27T05:42:13.971Z,97813.78
2023-04-27T05:44:41.707Z,97822.34
2023-04-27T05:47:09.224Z,97816.56
2023-04-27T05:49:37.189Z,97808.09
2023-04-27T05:52:04.993Z,97812.09
2023-04-27T05:54:32.558Z,97809.50
2023-04-27T05:57:00.053Z,97802.56
2023-04-27T05:59:29.433Z,97797.25
2023-04-27T06:01:57.078Z,97796.19
2023-04-27T06:04:24.902Z,97787.34
2023-04-27T06:06:52.466Z,97805.44
2023-04-27T06:09:20.003Z,97803.91
2023-04-27T06:11:47.483Z,97796.50
2023-04-27T06:14:15.130Z,97788.91
2023-04-27T06:16:43.971Z,97784.81
2023-04-27T06:19:12.302Z,97795.97
2023-04-27T06:21:40.071Z,97789.41
2023-04-27T06:24:07.831Z,97786.44
2023-04-27T06:26:35.391Z,97784.50
2023-04-27T06:29:03.789Z,97781.47
2023-04-27T06:31:31.374Z,97781.19
2023-04-27T06:34:00.482Z,97776.13
2023-04-27T06:36:28.233Z,97771.34
2023-04-27T06:38:56.604Z,97772.97
2023-04-27T06:41:24.153Z,97776.94
2023-04-27T06:43:51.652Z,97786.63
2023-04-27T06:46:19.169Z,97781.44
2023-04-27T06:48:46.862Z,97780.09
2023-04-27T06:51:16.106Z,97782.53
2023-04-27T06:53:43.614Z,97783.94
2023-04-27T06:56:12.613Z,97779.91
2023-04-27T06:58:40.153Z,97781.69
2023-04-27T07:01:07.733Z,97796.22
2023-04-27T07:03:35.930Z,97795.78
2023-04-27T07:06:03.676Z,97789.38
2023-04-27T07:08:32.582Z,97801.09
2023-04-27T07:11:00.109Z,97805.38
2023-04-27T07:13:27.742Z,97799.81
2023-04-27T07:15:56.685Z,97807.94
2023-04-27T07:18:26.045Z,97812.16
2023-04-27T07:20:53.599Z,97825.19
2023-04-27T07:23:21.161Z,97817.59
2023-04-27T07:25:50.026Z,97810.97
2023-04-27T07:28:17.587Z,97809.84
2023-04-27T07:30:45.686Z,97809.59
2023-04-27T07:33:13.352Z,97818.22
2023-04-27T07:35:45.895Z,97825.22
2023-04-27T07:38:13.470Z,97824.88
2023-04-27T07:40:42.639Z,97824.03
2023-04-27T07:43:12.700Z,97826.66
2023-04-27T07:45:41.621Z,97834.13
2023-04-27T07:48:09.832Z,97842.47
2023-04-27T07:50:37.450Z,97847.69
2023-04-27T07:53:04.974Z,97850.84
2023-04-27T07:55:32.874Z,97854.59
2023-04-27T07:58:00.592Z,97845.31
2023-04-27T08:00:29.431Z,97832.78
2023-04-27T08:02:57.186Z,97826.13
2023-04-27T08:05:25.214Z,97829.97
2023-04-27T08:07:54.486Z,97837.50
2023-04-27T08:10:22.459Z,97842.16
2023-04-27T08:12:50.003Z,97845.28
2023-04-27T08:15:17.593Z,97847.97
2023-04-27T08:17:47.306Z,97840.28
2023-04-27T08:20:14.921Z,97854.78
2023-04-27T08:22:42.756Z,97848.09
2023-04-27T08:25:10.508Z,97848.09
2023-04-27T08:27:38.150Z,97837.22
2023-04-27T08:30:06.096Z,97836.09
2023-04-27T08:32:33.686Z,97838.78
2023-04-27T08:35:02.606Z,97837.50
2023-04-27T08:37:30.193Z,97824.78
2023-04-27T08:39:57.693Z,97831.19
2023-04-27T08:42:25.276Z,97830.41
2023-04-27T08:44:52.777Z,97825.72
2023-04-27T08:47:28.382Z,97826.94
2023-04-27T08:50:03.844Z,97825.28
2023-04-27T08:52:31.812Z,97826.38
2023-04-27T08:54:59.372Z,97835.16
2023-04-27T08:57:26.922Z,97826.66
2023-04-27T09:00:00.973Z,97831.81
2023-04-27T09:02:29.715Z,97836.22
2023-04-27T09:04:57.649Z,97833.41
2023-04-27T09:07:28.637Z,97838.75
2023-04-27T09:10:02.818Z,97828.72
2023-04-27T09:12:30.443Z,97827.06
2023-04-27T09:14:57.954Z,97828.03
2023-04-27T09:17:25.895Z,97827.06
2023-04-27T09:19:53.500Z,97825.25
2023-04-27T09:22:21.176Z,97819.50
2023-04-27T09:24:53.401Z,97823.13
2023-04-27T09:27:21.164Z,97827.69
2023-04-27T09:29:48.691Z,97821.16
2023-04-27T09:32:17.579Z,97805.41
2023-04-27T09:34:45.388Z,97818.16
2023-04-27T09:37:14.312Z,97814.00
2023-04-27T09:39:41.812Z,97811.34
2023-04-27T09:42:10.822Z,97807.47
2023-04-27T09:44:38.289Z,97804.63
2023-04-27T09:47:06.016Z,97811.44
2023-04-27T09:49:33.516Z,97801.09
2023-04-27T09:52:01.005Z,97800.41
2023-04-27T09:54:29.107Z,97801.72
2023-04-27T09:57:02.933Z,97786.78
2023-04-27T09:59:46.329Z,97792.69
2023-04-27T10:02:24.914Z,97787.81
2023-04-27T10:05:03.763Z,97788.88
2023-04-27T10:07:31.450Z,97791.00
2023-04-27T10:10:01.944Z,97788.75
2023-04-27T10:12:30.011Z,97783.63
2023-04-27T10:14:59.280Z,97787.53
2023-04-27T10:17:27.541Z,97782.28
2023-04-27T10:19:58.712Z,97783.97
2023-04-27T10:22:27.098Z,97776.88
2023-04-27T10:24:57.440Z,97777.38
2023-04-27T10:27:30.279Z,97781.53
2023-04-27T10:30:09.074Z,97778.06
2023-04-27T10:32:36.656Z,97766.06
2023-04-27T10:35:06.440Z,97767.69
2023-04-27T10:37:39.449Z,97772.72
2023-04-27T10:40:10.804Z,97766.63
2023-04-27T10:42:38.351Z,97764.03
2023-04-27T10:45:09.865Z,97764.22
2023-04-27T10:47:40.105Z,97758.50
2023-04-27T10:50:11.370Z,97772.16
2023-04-27T10:52:41.257Z,97761.81
2023-04-27T10:55:18.185Z,97757.00
2023-04-27T10:57:51.056Z,97762.16
2023-04-27T11:00:25.391Z,97764.41
2023-04-27T11:02:54.013Z,97761.75
2023-04-27T11:05:23.409Z,97769.50
2023-04-27T11:07:51.056Z,97767.34
2023-04-27T11:10:18.937Z,97762.41
2023-04-27T11:12:46.817Z,97765.59
2023-04-27T11:15:16.713Z,97758.91
2023-04-27T11:17:45.757Z,97758.44
2023-04-27T11:20:14.512Z,97762.28
2023-04-27T11:22:45.912Z,97755.16
2023-04-27T11:25:13.512Z,97760.19
2023-04-27T11:27:41.941Z,97754.56
2023-04-27T11:30:19.705Z,97764.22
2023-04-27T11:32:48.971Z,97762.41
2023-04-27T11:35:16.855Z,97760.78
2023-04-27T11:37:44.400Z,97753.75
2023-04-27T11:40:14.336Z,97767.56
2023-04-27T11:42:43.525Z,97769.19
2023-04-27T11:45:12.178Z,97763.59
2023-04-27T11:47:41.153Z,97760.41
2023-04-27T11:50:10.570Z,97767.47
2023-04-27T11:52:39.077Z,97763.66
2023-04-27T11:55:07.161Z,97767.44
2023-04-27T11:57:35.872Z,97764.06
2023-04-27T12:00:04.986Z,97772.69
2023-04-27T12:02:40.833Z,97766.22
2023-04-27T12:05:12.462Z,97767.38
2023-04-27T12:07:41.123Z,97775.66
2023-04-27T12:10:09.320Z,97771.22
2023-04-27T12:12:36.986Z,97774.25
2023-04-27T12:15:04.739Z,97769.78
2023-04-27T12:17:32.813Z,97765.56
2023-04-27T12:20:00.505Z,97760.53
2023-04-27T12:22:29.833Z,97764.19
2023-04-27T12:24:57.594Z,97757.94
2023-04-27T12:27:26.524Z,97754.38
2023-04-27T12:29:55.168Z,97765.69
2023-04-27T12:32:23.645Z,97751.38
2023-04-27T12:34:51.369Z,97760.06
2023-04-27T12:37:18.885Z,97753.06
2023-04-27T12:39:47.804Z,97757.28
2023-04-27T12:42:15.400Z,97756.53
2023-04-27T12:44:42.924Z,97760.78
2023-04-27T12:47:12.287Z,97749.56
2023-04-27T12:49:45.098Z,97737.84
2023-04-27T12:52:12.637Z,97744.00
2023-04-27T12:54:40.212Z,97749.47
2023-04-27T12:57:09.133Z,97748.09
2023-04-27T12:59:37.118Z,97741.13
2023-04-27T13:02:05.168Z,97745.75
2023-04-27T13:04:33.071Z,97741.84
2023-04-27T13:07:01.038Z,97737.09
2023-04-27T13:09:28.817Z,97738.75
2023-04-27T13:12:01.397Z,97746.84
2023-04-27T13:14:32.156Z,97750.16
2023-04-27T13:16:59.690Z,97749.47
2023-04-27T13:19:27.290Z,97741.13
2023-04-27T13:21:55.223Z,97733.66
2023-04-27T13:24:24.590Z,97727.72
2023-04-27T13:26:52.126Z,97734.19
2023-04-27T13:29:19.892Z,97728.63
2023-04-27T13:31:51.424Z,97734.13
2023-04-27T13:34:19.626Z,97737.41
2023-04-27T13:36:49.395Z,97721.97
2023-04-27T13:39:20.116Z,97730.63
2023-04-27T13:41:47.602Z,97729.38
2023-04-27T13:44:18.148Z,97728.34
2023-04-27T13:47:34.451Z,97722.81
2023-04-27T13:50:03.708Z,97728.13
2023-04-27T13:52:31.412Z,97723.84
2023-04-27T13:54:59.317Z,97724.84
2023-04-27T13:57:27.140Z,97727.47
2023-04-27T13:59:54.677Z,97733.75
2023-04-27T14:02:22.301Z,97718.91
2023-04-27T14:04:49.843Z,97716.00
2023-04-27T14:07:18.630Z,97715.91
2023-04-27T14:09:46.152Z,97713.66
2023-04-27T14:12:16.289Z,97720.09
2023-04-27T14:14:46.888Z,97713.34
2023-04-27T14:17:14.489Z,97711.66
2023-04-27T14:19:42.808Z,97716.25
2023-04-27T14:22:10.475Z,97710.66
2023-04-27T14:24:39.482Z,97714.50
2023-04-27T14:27:07.025Z,97705.22
2023-04-27T14:29:34.679Z,97697.63
2023-04-27T14:32:02.262Z,97700.47
2023-04-27T14:34:29.967Z,97707.53
2023-04-27T14:36:57.465Z,97698.03
2023-04-27T14:39:25.219Z,97699.44
2023-04-27T14:41:54.142Z,97696.91
2023-04-27T14:44:21.702Z,97698.25
2023-04-27T14:46:51.322Z,97702.44
2023-04-27T14:49:19.008Z,97688.69
2023-04-27T14:51:46.670Z,97691.88
2023-04-27T14:58:09.734Z,97706.63
2023-04-27T15:00:37.258Z,97704.44
2023-04-27T15:03:04.864Z,97699.34
2023-04-27T15:05:32.734Z,97714.84
2023-04-27T15:08:01.503Z,97710.00
2023-04-27T15:10:28.922Z,97709.56
2023-04-27T15:12:56.429Z,97705.38
2023-04-27T15:15:25.207Z,97699.78
2023-04-27T15:17:52.770Z,97698.50
2023-04-27T15:20:20.551Z,97699.88
2023-04-27T15:22:48.149Z,97700.94
2023-04-27T15:25:18.466Z,97704.44
2023-04-27T15:27:46.068Z,97706.81
2023-04-27T15:30:14.596Z,97704.25
2023-04-27T15:32:43.538Z,97696.34
2023-04-27T15:35:11.436Z,97696.63
2023-04-27T15:37:38.915Z,97690.91
2023-04-27T15:40:09.744Z,97688.66
2023-04-27T15:42:37.202Z,97690.16
2023-04-27T15:45:04.975Z,97688.75
2023-04-27T15:47:32.496Z,97687.47
2023-04-27T15:50:01.442Z,97682.94
2023-04-27T15:52:29.665Z,97679.75
2023-04-27T15:54:57.203Z,97681.59
2023-04-27T15:57:24.653Z,97683.66
2023-04-27T15:59:52.528Z,97679.84
2023-04-27T16:02:20.119Z,97677.22
2023-04-27T16:04:48.663Z,97669.63
2023-04-27T16:07:17.458Z,97669.50
2023-04-27T16:09:45.053Z,97680.03
2023-04-27T16:12:12.548Z,97674.31
2023-04-27T16:14:40.382Z,97665.31
2023-04-27T16:17:07.837Z,97666.09
2023-04-27T16:19:36.577Z,97661.75
2023-04-27T16:22:04.288Z,97654.94
2023-04-27T16:24:33.113Z,97651.97
2023-04-27T16:27:00.531Z,97650.25
2023-04-27T16:29:28.029Z,97641.09
2023-04-27T16:31:55.574Z,97639.00
2023-04-27T16:34:23.136Z,97642.75
2023-04-27T16:36:55.645Z,97643.94
2023-04-27T16:39:23.100Z,97649.97
2023-04-27T16:41:52.595Z,97639.00
2023-04-27T16:44:20.714Z,97651.50
2023-04-27T16:46:48.730Z,97645.81
2023-04-27T16:49:16.741Z,97649.97
2023-04-27T16:51:47.417Z,97645.72
2023-04-27T16:54:16.480Z,97630.84
2023-04-27T16:56:44.067Z,97643.06
2023-04-27T16:59:13.332Z,97641.47
2023-04-27T17:01:41.769Z,97629.47
2023-04-27T17:04:09.509Z,97621.44
2023-04-27T17:06:37.206Z,97604.56
2023-04-27T17:09:05.302Z,97589.44
2023-04-27T17:11:32.867Z,97589.31
2023-04-27T17:14:01.172Z,97593.25
2023-04-27T17:16:30.161Z,97590.66
2023-04-27T17:18:57.857Z,97594.28
2023-04-27T17:21:26.888Z,97597.06
2023-04-27T17:23:56.409Z,97595.28
2023-04-27T17:26:23.920Z,97597.50
2023-04-27T17:28:51.703Z,97588.91
2023-04-27T17:31:19.465Z,97600.13
2023-04-27T17:33:48.369Z,97597.69
2023-04-27T17:36:17.821Z,97602.31
2023-04-27T17:38:46.368Z,97601.97
2023-04-27T17:41:13.876Z,97609.25
2023-04-27T17:43:41.918Z,97618.34
2023-04-27T17:46:10.074Z,97601.09
2023-04-27T17:48:38.248Z,97598.34
2023-04-27T17:51:08.619Z,97593.78
2023-04-27T17:53:36.223Z,97593.16
2023-04-27T17:56:03.804Z,97582.22
2023-04-27T17:58:32.488Z,97583.38
2023-04-27T18:01:00.070Z,97584.31
2023-04-27T18:03:30.373Z,97592.03
2023-04-27T18:05:58.294Z,97599.78
2023-04-27T18:08:27.253Z,97594.19
2023-04-27T18:10:54.784Z,97596.19
2023-04-27T18:13:22.307Z,97593.41
2023-04-27T18:15:49.864Z,97603.38
2023-04-27T18:18:22.597Z,97604.53
2023-04-27T18:20:52.223Z,97607.00
2023-04-27T18:23:19.789Z,97613.06
2023-04-27T18:25:48.671Z,97605.19
2023-04-27T18:28:19.071Z,97605.66
2023-04-27T18:30:46.605Z,97613.44
2023-04-27T18:33:14.351Z,97611.19
2023-04-27T18:35:41.973Z,97617.72
2023-04-27T18:38:09.773Z,97615.06
2023-04-27T18:40:38.708Z,97606.09
2023-04-27T18:43:07.814Z,97610.75
2023-04-27T18:45:37.762Z,97627.75
2023-04-27T18:48:07.880Z,97620.03
2023-04-27T18:50:41.548Z,97623.16
2023-04-27T18:53:09.074Z,97627.75
2023-04-27T18:55:36.679Z,97629.44
2023-04-27T18:58:04.239Z,97623.59
2023-04-27T19:00:36.383Z,97634.53
2023-04-27T19:03:04.255Z,97634.03
2023-04-27T19:05:32.197Z,97632.03
2023-04-27T19:07:59.847Z,97635.66
2023-04-27T19:10:27.323Z,97631.88
2023-04-27T19:12:58.353Z,97638.09
2023-04-27T19:15:26.077Z,97641.69
2023-04-27T19:18:02.642Z,97642.81
2023-04-27T19:20:37.403Z,97644.97
2023-04-27T19:23:05.304Z,97643.13
2023-04-27T19:25:32.936Z,97648.25
2023-04-27T19:28:00.732Z,97643.00
2023-04-27T19:30:28.445Z,97648.06
2023-04-27T19:32:59.659Z,97644.75
2023-04-27T19:35:27.651Z,97648.66
2023-04-27T19:37:56.501Z,97652.41
2023-04-27T19:40:24.802Z,97653.00
2023-04-27T19:42:52.492Z,97651.59
2023-04-27T19:45:20.694Z,97653.13
2023-04-27T19:47:48.759Z,97654.94
2023-04-27T19:50:17.728Z,97651.19
2023-04-27T19:52:45.723Z,97653.13
2023-04-27T19:55:13.664Z,97650.13
2023-04-27T19:57:41.392Z,97630.50
2023-04-27T20:00:12.636Z,97612.22
2023-04-27T20:02:43.075Z,97609.75
2023-04-27T20:05:14.179Z,97618.84
2023-04-27T20:07:43.397Z,97626.63
2023-04-27T20:10:11.109Z,97619.22
2023-04-27T20:12:55.252Z,97611.00
2023-04-27T20:15:26.058Z,97611.53
2023-04-27T20:17:53.779Z,97619.41
2023-04-27T20:20:21.396Z,97611.50
2023-04-27T20:22:52.908Z,97611.50
2023-04-27T20:25:20.711Z,97598.91
2023-04-27T20:27:48.350Z,97601.00
2023-04-27T20:30:16.054Z,97599.59
2023-04-27T20:32:43.692Z,97603.16
2023-04-27T20:35:11.658Z,97594.03
2023-04-27T20:37:45.792Z,97587.63
2023-04-27T20:40:17.612Z,97589.16
2023-04-27T20:42:45.781Z,97592.50
2023-04-27T20:45:13.742Z,97585.72
2023-04-27T20:47:41.788Z,97597.47
2023-04-27T20:50:09.625Z,97595.47
2023-04-27T20:52:37.260Z,97601.28
2023-04-27T20:55:07.455Z,97593.94
2023-04-27T20:57:36.432Z,97589.59
2023-04-27T21:00:04.837Z,97589.34
2023-04-27T21:02:32.485Z,97605.97
2023-04-27T21:05:00.241Z,97595.09
2023-04-27T21:07:29.736Z,97597.88
2023-04-27T21:09:57.271Z,97599.72
2023-04-27T21:12:59.208Z,97598.78
2023-04-27T21:15:28.472Z,97595.06
2023-04-27T21:25:23.603Z,97589.69
2023-04-27T21:28:16.921Z,97580.00
2023-04-27T21:38:49.653Z,97571.72
2023-04-27T21:41:56.038Z,97564.06
2023-04-27T21:44:47.871Z,97560.72
2023-04-27T21:47:33.097Z,97565.38
2023-04-27T21:50:18.850Z,97563.84
2023-04-27T21:52:58.573Z,97568.34
2023-04-27T21:55:45.033Z,97553.19
2023-04-27T21:58:47.468Z,97556.09
2023-04-27T22:01:34.619Z,97549.25
2023-04-27T22:04:23.573Z,97545.66
2023-04-27T22:07:14.696Z,97543.13
2023-04-27T22:10:13.431Z,97539.69
2023-04-27T22:12:48.620Z,97542.66
2023-04-27T22:15:39.785Z,97543.63
2023-04-27T22:18:40.881Z,97539.88
2023-04-27T22:21:27.779Z,97542.94
2023-04-27T22:24:08.815Z,97544.44
2023-04-27T22:26:54.335Z,97542.59
2023-04-27T22:29:43.088Z,97553.31
2023-04-27T22:32:38.978Z,97549.09
2023-04-27T22:35:26.923Z,97558.00
2023-04-27T22:38:20.964Z,97560.25
2023-04-27T22:40:55.032Z,97565.31
2023-04-27T22:43:32.351Z,97562.06
2023-04-27T22:46:13.161Z,97562.00
2023-04-27T22:48:53.060Z,97557.41
2023-04-27T22:51:42.942Z,97555.22
2023-04-27T22:54:54.410Z,97535.31
2023-04-27T22:57:40.737Z,97552.13
2023-04-27T23:00:30.379Z,97537.16
2023-04-27T23:03:10.906Z,97543.09
2023-04-27T23:06:17.388Z,97533.31
2023-04-27T23:09:14.464Z,97531.88
2023-04-27T23:12:18.124Z,97531.16
2023-04-27T23:18:57.822Z,97529.34
2023-04-27T23:21:52.533Z,97525.75
2023-04-27T23:25:13.318Z,97521.75
2023-04-27T23:28:34.160Z,97526.44
2023-04-27T23:31:57.948Z,97528.16
2023-04-27T23:43:04.860Z,97506.00
2023-04-27T23:46:31.096Z,97491.16
2023-04-27T23:49:54.476Z,97482.75
2023-04-27T23:53:26.260Z,97486.16
2023-04-27T23:56:44.906Z,97479.59
2023-04-27T23:59:43.757Z,97479.31
